Time;durP1;ratioP1;P1;durP2;ratioP2;P2;SDS_P1;SDS_P2;PMS_P1;PMS_P2;Temp;Humidity;BMP_temperature;BMP_pressure;BME280_temperature;BME280_humidity;BME280_pressure;Samples;Min_cycle;Max_cycle;Signal;HPM_P1;HPM_P2
2024/01/14 00:02:09;;;;;;;92.63;34.55;;;;;;;2.50;95.17;101577.56;5085664;28;20020;-74
2024/01/14 00:04:34;;;;;;;82.63;28.58;;;;;;;2.47;95.41;101564.53;5084323;28;20020;-73
2024/01/14 00:06:59;;;;;;;82.18;29.40;;;;;;;2.52;95.22;101573.25;5064956;28;20046;-74
2024/01/14 00:09:25;;;;;;;87.68;30.88;;;;;;;2.52;94.89;101575.84;5065010;28;20051;-75
2024/01/14 00:11:50;;;;;;;86.85;30.88;;;;;;;2.55;94.88;101575.84;5066672;28;20024;-74
2024/01/14 00:14:15;;;;;;;77.57;28.73;;;;;;;2.59;94.54;101571.53;5066111;28;20029;-75
2024/01/14 00:16:41;;;;;;;80.15;28.30;;;;;;;2.57;94.92;101568.06;5066947;28;20016;-73
2024/01/14 00:19:07;;;;;;;86.60;29.88;;;;;;;2.54;94.95;101568.91;5082874;28;20017;-75
2024/01/14 00:21:32;;;;;;;88.38;32.80;;;;;;;2.52;95.31;101573.25;5084725;28;20066;-75
2024/01/14 00:23:58;;;;;;;86.10;30.60;;;;;;;2.54;95.04;101566.28;5085634;28;20035;-74
2024/01/14 00:26:24;;;;;;;85.63;30.98;;;;;;;2.51;95.23;101570.59;5073023;28;20111;-75
2024/01/14 00:28:54;;;;;;;82.38;30.63;;;;;;;2.48;95.50;101563.66;5081955;28;20574;-74
2024/01/14 00:31:19;;;;;;;86.63;29.38;;;;;;;2.52;95.45;101561.94;5081714;28;20037;-74
2024/01/14 00:33:45;;;;;;;86.25;31.08;;;;;;;2.55;95.39;101564.53;5083787;28;20031;-74
2024/01/14 00:36:10;;;;;;;71.95;27.55;;;;;;;2.54;95.13;101553.22;5085457;28;20052;-74
2024/01/14 00:38:36;;;;;;;75.82;27.30;;;;;;;2.57;95.21;101546.31;5068426;28;20413;-75
2024/01/14 00:41:01;;;;;;;82.93;29.73;;;;;;;2.50;95.27;101541.03;5063429;28;20089;-73
2024/01/14 00:43:27;;;;;;;91.25;30.50;;;;;;;2.51;95.45;101516.66;5063647;28;20020;-75
2024/01/14 00:45:52;;;;;;;75.72;27.88;;;;;;;2.50;95.44;101525.38;5084676;28;20032;-75
2024/01/14 00:48:18;;;;;;;75.47;27.73;;;;;;;2.52;95.49;101528.00;5064360;28;20537;-75
2024/01/14 00:50:43;;;;;;;75.75;27.83;;;;;;;2.48;95.46;101534.09;5081377;28;20024;-74
2024/01/14 00:53:08;;;;;;;70.47;26.05;;;;;;;2.54;95.73;101545.41;5079748;28;20043;-74
2024/01/14 00:55:34;;;;;;;70.18;24.58;;;;;;;2.58;95.53;101529.75;5081304;28;20408;-74
2024/01/14 00:57:59;;;;;;;78.95;27.48;;;;;;;2.58;95.23;101527.16;5063818;28;20474;-73
2024/01/14 01:00:25;;;;;;;84.13;28.52;;;;;;;2.54;95.54;101519.31;5083443;28;20028;-74
2024/01/14 01:02:50;;;;;;;80.85;27.70;;;;;;;2.61;95.41;101520.22;5066768;28;20016;-74
2024/01/14 01:05:16;;;;;;;84.43;29.60;;;;;;;2.61;95.49;101521.94;5081109;28;20532;-74
2024/01/14 01:07:41;;;;;;;71.22;26.45;;;;;;;2.66;95.46;101520.19;5083838;28;20020;-75
2024/01/14 01:10:06;;;;;;;76.95;26.65;;;;;;;2.64;95.41;101509.75;5085465;28;20044;-74
2024/01/14 01:12:32;;;;;;;76.90;27.50;;;;;;;2.66;95.23;101504.53;5084049;28;20376;-74
2024/01/14 01:14:57;;;;;;;81.80;27.63;;;;;;;2.66;95.29;101508.03;5083449;28;20016;-73
2024/01/14 01:17:22;;;;;;;73.43;26.65;;;;;;;2.72;95.26;101504.56;5082589;28;20112;-73
2024/01/14 01:19:48;;;;;;;72.38;25.33;;;;;;;2.70;95.23;101509.78;5067416;28;20036;-77
2024/01/14 01:22:13;;;;;;;77.82;26.25;;;;;;;2.67;95.34;101501.94;5088236;28;20072;-77
2024/01/14 01:24:38;;;;;;;72.72;25.33;;;;;;;2.67;95.62;101514.13;5081797;28;20031;-77
2024/01/14 01:27:04;;;;;;;76.53;27.38;;;;;;;2.65;95.30;101492.34;5064812;28;20031;-76
2024/01/14 01:29:30;;;;;;;76.60;27.83;;;;;;;2.67;95.65;101503.69;5061244;28;20032;-77
2024/01/14 01:31:55;;;;;;;70.88;27.40;;;;;;;2.67;95.45;101504.56;5075667;28;20062;-77
2024/01/14 01:34:21;;;;;;;67.22;24.02;;;;;;;2.74;95.21;101511.53;5080152;28;20033;-77
2024/01/14 01:36:46;;;;;;;72.32;27.35;;;;;;;2.73;95.39;101511.53;5062522;28;20040;-77
2024/01/14 01:39:13;;;;;;;81.38;26.80;;;;;;;2.69;95.32;101501.94;5077830;28;20032;-77
2024/01/14 01:41:38;;;;;;;72.97;25.67;;;;;;;2.68;95.21;101495.00;5065088;28;20285;-76
2024/01/14 01:44:04;;;;;;;79.72;29.15;;;;;;;2.65;95.38;101490.63;5061542;28;20028;-78
2024/01/14 01:46:29;;;;;;;76.57;29.05;;;;;;;2.63;95.05;101476.69;5088119;28;20016;-76
2024/01/14 01:48:54;;;;;;;68.05;24.88;;;;;;;2.62;95.32;101487.16;5077613;28;20041;-77
2024/01/14 01:51:20;;;;;;;79.05;26.88;;;;;;;2.64;95.07;101490.63;5068038;28;20049;-78
2024/01/14 01:53:46;;;;;;;71.65;25.75;;;;;;;2.62;95.06;101482.78;5084209;28;20020;-77
2024/01/14 01:56:11;;;;;;;71.10;24.90;;;;;;;2.61;95.11;101469.72;5084740;28;20029;-78
2024/01/14 01:58:38;;;;;;;62.30;22.25;;;;;;;2.62;95.14;101476.72;5082080;28;20122;-78
2024/01/14 02:01:05;;;;;;;72.43;25.35;;;;;;;2.55;95.27;101474.06;5082186;28;20039;-78
2024/01/14 02:03:31;;;;;;;77.47;28.13;;;;;;;2.58;95.33;101482.78;5064362;28;20191;-77
2024/01/14 02:05:57;;;;;;;73.18;26.23;;;;;;;2.54;95.27;101482.75;5083985;28;20035;-78
2024/01/14 02:08:23;;;;;;;69.07;26.38;;;;;;;2.54;95.45;101477.53;5081952;28;20040;-75
2024/01/14 02:10:49;;;;;;;78.28;28.02;;;;;;;2.61;95.20;101482.78;5079693;28;20105;-74
2024/01/14 02:13:15;;;;;;;79.75;29.80;;;;;;;2.54;95.33;101474.06;5079074;28;20464;-75
2024/01/14 02:15:40;;;;;;;75.63;28.52;;;;;;;2.49;95.39;101463.59;5082356;28;20532;-75
2024/01/14 02:18:06;;;;;;;69.22;25.98;;;;;;;2.54;95.59;101467.09;5082899;28;20050;-74
2024/01/14 02:20:31;;;;;;;71.63;25.17;;;;;;;2.53;95.56;101460.16;5082974;28;20411;-73
2024/01/14 02:22:59;;;;;;;81.13;30.67;;;;;;;2.48;95.92;101461.00;5083532;28;20081;-74
2024/01/14 02:25:25;;;;;;;75.22;28.00;;;;;;;2.50;95.99;101470.56;5080468;28;20021;-74
2024/01/14 02:27:50;;;;;;;75.85;27.38;;;;;;;2.52;95.84;101467.97;5081754;28;20057;-74
2024/01/14 02:30:17;;;;;;;71.18;26.83;;;;;;;2.53;95.78;101467.09;5066960;28;20077;-73
2024/01/14 02:32:42;;;;;;;71.03;25.15;;;;;;;2.52;95.54;101470.59;5084316;28;20039;-74
2024/01/14 02:35:08;;;;;;;69.93;25.17;;;;;;;2.51;95.74;101458.38;5081326;28;20031;-75
2024/01/14 02:37:37;;;;;;;64.55;26.08;;;;;;;2.52;95.69;101452.31;5084488;28;20024;-74
2024/01/14 02:40:03;;;;;;;74.88;27.48;;;;;;;2.50;95.23;101448.81;5083998;28;20027;-75
2024/01/14 02:42:29;;;;;;;77.80;30.27;;;;;;;2.48;95.49;101448.81;5081827;28;20024;-75
2024/01/14 02:44:54;;;;;;;72.65;26.00;;;;;;;2.51;95.71;101443.59;5061608;28;20032;-76
2024/01/14 02:47:19;;;;;;;76.57;27.23;;;;;;;2.55;95.43;101432.28;5080829;28;20086;-75
2024/01/14 02:49:44;;;;;;;72.45;27.77;;;;;;;2.62;94.79;101430.59;5082785;28;20024;-75
2024/01/14 02:52:10;;;;;;;73.15;29.67;;;;;;;2.59;95.13;101420.13;5064550;28;20055;-75
2024/01/14 02:54:35;;;;;;;81.68;31.20;;;;;;;2.52;95.15;101413.19;5084039;28;20066;-75
2024/01/14 02:57:00;;;;;;;72.18;26.52;;;;;;;2.55;94.68;101418.38;5081468;28;20035;-76
2024/01/14 02:59:26;;;;;;;82.70;29.33;;;;;;;2.55;95.10;101410.56;5082763;28;20353;-75
2024/01/14 03:01:51;;;;;;;79.40;28.80;;;;;;;2.55;94.86;101408.81;5082126;28;20032;-75
2024/01/14 03:04:16;;;;;;;58.95;24.00;;;;;;;2.61;94.60;101409.69;5083153;28;20418;-75
2024/01/14 03:06:42;;;;;;;71.85;27.35;;;;;;;2.61;94.60;101409.69;5082926;28;20025;-75
2024/01/14 03:09:09;;;;;;;82.93;26.83;;;;;;;2.59;94.55;101395.78;5065519;28;20077;-75
2024/01/14 03:11:34;;;;;;;72.10;27.20;;;;;;;2.55;94.74;101395.75;5067808;28;20020;-75
2024/01/14 03:14:00;;;;;;;69.85;26.05;;;;;;;2.58;94.37;101396.66;5066073;28;20035;-75
2024/01/14 03:16:25;;;;;;;70.68;25.75;;;;;;;2.54;94.48;101390.53;5079820;28;20059;-75
2024/01/14 03:18:51;;;;;;;73.95;25.25;;;;;;;2.54;94.48;101393.16;5086393;28;20027;-79
2024/01/14 03:21:19;;;;;;;66.57;26.05;;;;;;;2.51;94.65;101399.22;5086950;28;20474;-79
2024/01/14 03:23:45;;;;;;;67.68;24.98;;;;;;;2.52;94.25;101393.16;5082639;28;20024;-80
2024/01/14 03:26:11;;;;;;;68.22;27.65;;;;;;;2.55;94.11;101384.44;5071204;28;20023;-78
2024/01/14 03:28:36;;;;;;;66.95;26.00;;;;;;;2.53;94.22;101383.59;5087188;28;20032;-78
2024/01/14 03:31:02;;;;;;;72.18;26.17;;;;;;;2.47;93.87;101378.34;5088817;28;20507;-79
2024/01/14 03:33:27;;;;;;;72.72;26.67;;;;;;;2.49;94.18;101380.09;5087507;28;20106;-77
2024/01/14 03:35:53;;;;;;;68.68;24.92;;;;;;;2.49;94.12;101379.22;5089124;28;20024;-79
2024/01/14 03:38:18;;;;;;;64.72;25.05;;;;;;;2.50;93.84;101370.53;5070806;28;20028;-79
2024/01/14 03:40:43;;;;;;;71.00;27.85;;;;;;;2.47;94.16;101375.72;5087823;28;20024;-79
2024/01/14 03:43:09;;;;;;;67.38;25.45;;;;;;;2.49;94.23;101374.00;5086346;28;20036;-78
2024/01/14 03:45:34;;;;;;;67.10;25.17;;;;;;;2.49;93.74;101377.50;5067263;28;20056;-79
2024/01/14 03:47:59;;;;;;;66.45;25.17;;;;;;;2.50;93.73;101368.78;5084548;28;20035;-78
2024/01/14 03:50:25;;;;;;;60.78;24.13;;;;;;;2.50;93.82;101358.34;5082975;28;20103;-75
2024/01/14 03:52:50;;;;;;;62.63;24.77;;;;;;;2.51;93.68;101373.13;5088056;28;20425;-75
2024/01/14 03:55:15;;;;;;;63.08;25.38;;;;;;;2.50;93.51;101374.00;5067075;28;20494;-75
2024/01/14 03:57:41;;;;;;;57.45;22.67;;;;;;;2.49;93.75;101367.06;5084869;28;20051;-76
2024/01/14 04:00:08;;;;;;;59.67;22.73;;;;;;;2.48;93.58;101365.31;5083612;28;20304;-74
2024/01/14 04:02:33;;;;;;;66.28;24.27;;;;;;;2.41;93.53;101350.50;5064137;28;20467;-75
2024/01/14 04:04:59;;;;;;;58.70;25.08;;;;;;;2.44;93.74;101357.47;5086230;28;20040;-75
2024/01/14 04:07:24;;;;;;;62.47;24.35;;;;;;;2.44;93.93;101353.13;5081441;28;20032;-75
2024/01/14 04:09:49;;;;;;;57.53;22.88;;;;;;;2.45;93.71;101354.88;5083346;28;20284;-75
2024/01/14 04:12:15;;;;;;;56.67;23.48;;;;;;;2.37;93.86;101353.09;5086764;28;20312;-75
2024/01/14 04:14:41;;;;;;;62.67;22.73;;;;;;;2.39;93.74;101347.03;5085206;28;20047;-75
2024/01/14 04:17:06;;;;;;;65.78;24.45;;;;;;;2.38;93.95;101347.91;5065983;28;20540;-74
2024/01/14 04:19:31;;;;;;;65.13;24.08;;;;;;;2.38;93.79;101340.09;5083517;28;20035;-75
2024/01/14 04:21:57;;;;;;;57.72;23.08;;;;;;;2.37;93.91;101347.88;5084711;28;20024;-75
2024/01/14 04:24:22;;;;;;;56.63;22.05;;;;;;;2.36;93.80;101341.81;5082572;28;20047;-75
2024/01/14 04:26:48;;;;;;;66.30;23.80;;;;;;;2.34;93.99;101345.28;5081975;28;20094;-76
2024/01/14 04:29:13;;;;;;;59.03;20.85;;;;;;;2.39;93.61;101346.16;5082764;28;20026;-74
2024/01/14 04:31:38;;;;;;;57.67;21.92;;;;;;;2.40;93.52;101343.56;5065187;28;20463;-75
2024/01/14 04:34:04;;;;;;;63.03;21.60;;;;;;;2.38;93.66;101340.09;5064452;28;20355;-75
2024/01/14 04:36:29;;;;;;;59.40;23.70;;;;;;;2.34;93.26;101337.47;5083755;28;20055;-75
2024/01/14 04:38:55;;;;;;;64.47;25.13;;;;;;;2.32;93.44;101337.44;5067053;28;20024;-74
2024/01/14 04:41:20;;;;;;;56.22;23.75;;;;;;;2.32;93.41;101340.06;5069863;28;20035;-75
2024/01/14 04:43:46;;;;;;;63.65;22.73;;;;;;;2.30;93.75;101332.22;5067209;28;20483;-75
2024/01/14 04:46:11;;;;;;;50.22;20.52;;;;;;;2.30;93.61;101324.41;5069139;28;20114;-75
2024/01/14 04:48:37;;;;;;;62.97;23.58;;;;;;;2.29;93.56;101334.84;5084382;28;20036;-75
2024/01/14 04:51:02;;;;;;;60.03;21.58;;;;;;;2.30;93.44;101326.16;5089559;28;20534;-75
2024/01/14 04:53:27;;;;;;;60.70;23.70;;;;;;;2.23;93.18;101322.63;5071677;28;20020;-76
2024/01/14 04:55:53;;;;;;;48.10;19.33;;;;;;;2.26;93.58;101321.78;5088107;28;20030;-74
2024/01/14 04:58:18;;;;;;;47.45;20.35;;;;;;;2.23;93.53;101320.03;5089655;28;20027;-75
2024/01/14 05:00:44;;;;;;;54.05;20.35;;;;;;;2.28;93.25;101320.94;5091194;28;20066;-79
2024/01/14 05:03:09;;;;;;;57.13;22.50;;;;;;;2.24;93.18;101308.75;5089620;28;20145;-79
2024/01/14 05:05:35;;;;;;;52.28;20.08;;;;;;;2.28;93.17;101309.59;5090555;28;20374;-79
2024/01/14 05:08:00;;;;;;;50.78;19.27;;;;;;;2.28;93.15;101307.91;5084083;28;20024;-78
2024/01/14 05:10:25;;;;;;;54.85;20.15;;;;;;;2.26;93.33;101298.31;5090021;28;20052;-79
2024/01/14 05:12:50;;;;;;;48.00;18.00;;;;;;;2.28;92.86;101300.06;5071606;28;20032;-78
2024/01/14 05:15:16;;;;;;;43.45;17.30;;;;;;;2.29;93.03;101307.03;5086122;28;20463;-78
2024/01/14 05:17:41;;;;;;;42.60;17.58;;;;;;;2.29;92.71;101296.59;5086417;28;20024;-78
2024/01/14 05:20:08;;;;;;;45.72;18.60;;;;;;;2.27;92.74;101298.31;5067944;28;20387;-78
2024/01/14 05:22:34;;;;;;;42.83;16.48;;;;;;;2.25;92.60;101299.19;5089049;28;20032;-78
2024/01/14 05:24:59;;;;;;;43.38;17.80;;;;;;;2.20;92.63;101298.31;5072072;28;20101;-78
2024/01/14 05:27:25;;;;;;;45.67;17.85;;;;;;;2.20;92.51;101291.34;5091460;28;20035;-78
2024/01/14 05:29:50;;;;;;;40.08;17.92;;;;;;;2.20;92.70;101298.31;5090097;28;20023;-78
2024/01/14 05:32:16;;;;;;;38.92;16.33;;;;;;;2.13;92.57;101291.34;5074144;28;20030;-79
2024/01/14 05:34:45;;;;;;;40.13;17.42;;;;;;;2.15;92.69;101284.41;5090807;28;20036;-79
2024/01/14 05:37:11;;;;;;;43.33;17.30;;;;;;;2.12;92.52;101293.06;5070326;28;20479;-78
2024/01/14 05:39:37;;;;;;;45.50;17.48;;;;;;;2.16;92.65;101279.16;5088711;28;20053;-74
2024/01/14 05:42:03;;;;;;;44.15;18.40;;;;;;;2.14;92.58;101280.03;5089087;28;20117;-75
2024/01/14 05:44:30;;;;;;;43.45;17.27;;;;;;;2.15;92.47;101273.97;5089130;28;20041;-75
2024/01/14 05:46:55;;;;;;;38.75;16.83;;;;;;;2.11;92.61;101282.66;5088799;28;20035;-74
2024/01/14 05:49:21;;;;;;;43.92;16.77;;;;;;;2.07;92.46;101262.66;5088751;28;20464;-75
2024/01/14 05:51:47;;;;;;;52.20;19.40;;;;;;;2.07;92.63;101263.50;5086429;28;20031;-74
2024/01/14 05:54:13;;;;;;;42.85;15.93;;;;;;;2.10;92.62;101268.75;5087850;28;20020;-74
2024/01/14 05:56:38;;;;;;;46.58;18.23;;;;;;;2.05;92.61;101267.84;5089985;28;20028;-74
2024/01/14 05:59:03;;;;;;;45.63;19.52;;;;;;;1.99;93.08;101263.50;5090162;28;20035;-74
2024/01/14 06:01:29;;;;;;;38.75;15.10;;;;;;;2.03;92.70;101256.53;5084592;28;20379;-74
2024/01/14 06:03:55;;;;;;;50.22;20.58;;;;;;;2.02;92.80;101252.22;5092402;28;20032;-75
2024/01/14 06:06:21;;;;;;;53.05;21.88;;;;;;;2.01;92.61;101255.69;5089350;28;20019;-75
2024/01/14 06:08:46;;;;;;;49.95;19.55;;;;;;;2.04;92.80;101248.72;5089813;28;20039;-75
2024/01/14 06:11:13;;;;;;;48.40;20.40;;;;;;;2.01;92.93;101245.25;5087739;28;20075;-78
2024/01/14 06:13:39;;;;;;;50.45;20.63;;;;;;;1.99;92.93;101245.22;5071698;28;20020;-77
2024/01/14 06:16:04;;;;;;;52.88;20.00;;;;;;;2.02;92.90;101245.25;5066376;28;20028;-77
2024/01/14 06:18:30;;;;;;;47.22;19.13;;;;;;;2.00;92.90;101233.06;5070507;28;20217;-78
2024/01/14 06:20:55;;;;;;;49.20;20.17;;;;;;;2.00;92.81;101233.94;5087021;28;20032;-78
2024/01/14 06:23:21;;;;;;;52.38;19.75;;;;;;;2.03;92.71;101230.47;5088025;28;20145;-77
2024/01/14 06:25:47;;;;;;;52.53;19.15;;;;;;;2.02;92.80;101229.59;5089384;28;20024;-78
2024/01/14 06:28:12;;;;;;;48.95;18.25;;;;;;;2.07;92.65;101233.97;5087081;28;20058;-76
2024/01/14 06:30:38;;;;;;;51.95;18.45;;;;;;;1.99;92.78;101223.50;5070383;28;20020;-78
2024/01/14 06:33:03;;;;;;;47.88;19.10;;;;;;;2.00;92.61;101215.69;5088492;28;20107;-78
2024/01/14 06:35:29;;;;;;;53.10;18.88;;;;;;;2.01;93.03;101222.66;5088133;28;20528;-77
2024/01/14 06:37:54;;;;;;;47.03;19.15;;;;;;;1.99;92.73;101216.56;5066112;28;20028;-78
2024/01/14 06:40:19;;;;;;;43.47;16.85;;;;;;;2.03;92.77;101220.91;5087864;28;20119;-78
2024/01/14 06:42:45;;;;;;;41.92;16.95;;;;;;;1.98;92.71;101207.00;5090247;28;20086;-77
2024/01/14 06:45:12;;;;;;;44.28;18.10;;;;;;;2.00;92.93;101213.06;5072888;28;20282;-77
2024/01/14 06:47:37;;;;;;;51.63;18.58;;;;;;;2.01;92.58;101213.97;5070124;28;20080;-78
2024/01/14 06:50:06;;;;;;;49.33;19.48;;;;;;;2.02;92.46;101213.09;5067436;28;20032;-74
2024/01/14 06:52:31;;;;;;;48.25;18.17;;;;;;;2.01;92.63;101204.41;5092651;28;20107;-74
2024/01/14 06:54:57;;;;;;;43.67;17.88;;;;;;;2.04;92.43;101200.91;5090000;28;20450;-74
2024/01/14 06:57:22;;;;;;;50.30;20.00;;;;;;;2.05;92.30;101205.25;5074388;28;20080;-74
2024/01/14 06:59:48;;;;;;;48.70;19.05;;;;;;;2.04;92.50;101198.31;5086729;28;20024;-74
2024/01/14 07:02:14;;;;;;;43.20;18.90;;;;;;;1.96;92.70;101197.44;5065802;28;20032;-75
2024/01/14 07:04:40;;;;;;;43.95;17.40;;;;;;;2.02;92.59;101194.84;5069779;28;20055;-74
2024/01/14 07:07:06;;;;;;;45.92;17.85;;;;;;;1.97;92.42;101194.84;5087957;28;20055;-75
2024/01/14 07:09:33;;;;;;;47.95;17.90;;;;;;;1.98;92.54;101186.13;5087540;28;20039;-75
2024/01/14 07:11:59;;;;;;;38.38;14.90;;;;;;;2.02;92.25;101189.63;5065131;28;20024;-73
2024/01/14 07:14:24;;;;;;;48.25;20.02;;;;;;;2.00;92.42;101188.75;5088491;28;20612;-74
2024/01/14 07:16:50;;;;;;;45.13;18.45;;;;;;;1.98;92.55;101185.28;5088087;28;20049;-74
2024/01/14 07:19:15;;;;;;;41.45;17.67;;;;;;;2.00;92.40;101189.59;5088618;28;20411;-74
2024/01/14 07:21:42;;;;;;;42.38;15.90;;;;;;;1.99;92.30;101187.00;5088837;28;20086;-74
2024/01/14 07:24:07;;;;;;;45.80;17.38;;;;;;;2.04;92.06;101185.25;5068922;28;20071;-75
2024/01/14 07:26:33;;;;;;;50.90;18.75;;;;;;;2.03;92.30;101183.53;5088846;28;20020;-74
2024/01/14 07:28:58;;;;;;;42.20;17.77;;;;;;;2.04;92.11;101193.94;5067181;28;20039;-73
2024/01/14 07:31:33;;;;;;;36.63;14.90;;;;;;;2.03;92.15;101189.63;5070886;28;20027;-74
2024/01/14 07:33:58;;;;;;;51.40;19.98;;;;;;;2.05;92.11;101189.59;5068526;28;20060;-74
2024/01/14 07:36:24;;;;;;;46.03;18.48;;;;;;;2.03;92.07;101184.41;5070860;28;20059;-74
2024/01/14 07:38:53;;;;;;;52.22;20.45;;;;;;;1.94;92.30;101189.59;5070105;28;20032;-74
2024/01/14 07:41:19;;;;;;;48.63;19.52;;;;;;;1.95;92.36;101183.50;5086549;28;20055;-73
2024/01/14 07:43:44;;;;;;;43.20;17.48;;;;;;;1.99;92.03;101185.25;5065344;28;20447;-74
2024/01/14 07:46:10;;;;;;;47.85;18.23;;;;;;;1.96;92.41;101184.41;5070911;28;20031;-75
2024/01/14 07:48:36;;;;;;;40.83;19.15;;;;;;;1.98;92.07;101186.13;5066935;28;20490;-75
2024/01/14 07:51:03;;;;;;;46.20;17.45;;;;;;;1.99;91.97;101198.31;5088786;28;20111;-74
2024/01/14 07:53:28;;;;;;;49.50;18.73;;;;;;;1.98;92.23;101183.53;5087020;28;20020;-75
2024/01/14 07:55:54;;;;;;;48.13;18.13;;;;;;;2.04;91.97;101190.47;5064331;28;20032;-74
2024/01/14 07:58:19;;;;;;;44.42;18.40;;;;;;;1.97;92.15;101179.19;5088822;28;20019;-75
2024/01/14 08:00:45;;;;;;;47.45;18.77;;;;;;;2.00;92.13;101184.38;5087857;28;20425;-74
2024/01/14 08:03:11;;;;;;;46.92;17.60;;;;;;;2.03;92.20;101183.53;5063263;28;20016;-74
2024/01/14 08:05:38;;;;;;;58.63;20.30;;;;;;;1.93;92.49;101182.66;5071215;28;20058;-74
2024/01/14 08:08:04;;;;;;;43.53;16.52;;;;;;;1.96;92.44;101182.69;5065753;28;20470;-75
2024/01/14 08:10:30;;;;;;;53.08;20.85;;;;;;;1.91;92.77;101178.31;5085559;28;20048;-75
2024/01/14 08:12:56;;;;;;;48.83;17.55;;;;;;;2.02;92.22;101190.50;5079664;28;20043;-74
2024/01/14 08:15:22;;;;;;;44.05;14.75;;;;;;;2.07;92.20;101185.28;5074520;28;20392;-74
2024/01/14 08:17:47;;;;;;;46.20;16.25;;;;;;;2.05;91.98;101181.78;5058206;28;20107;-75
2024/01/14 08:20:13;;;;;;;46.25;17.40;;;;;;;2.04;92.00;101180.91;5084988;28;20523;-74
2024/01/14 08:22:39;;;;;;;39.05;15.10;;;;;;;2.12;91.76;101182.66;5085726;28;20097;-74
2024/01/14 08:25:05;;;;;;;38.60;15.00;;;;;;;2.15;91.59;101172.25;5087795;28;20382;-74
2024/01/14 08:27:31;;;;;;;38.85;13.95;;;;;;;2.15;91.44;101172.25;5086737;28;20023;-75
2024/01/14 08:29:56;;;;;;;45.08;17.27;;;;;;;2.13;91.70;101179.19;5089117;28;20036;-75
2024/01/14 08:32:22;;;;;;;50.63;17.05;;;;;;;2.16;91.64;101182.66;5087171;28;21319;-74
2024/01/14 08:34:47;;;;;;;42.67;16.92;;;;;;;2.23;91.54;101183.53;5087427;28;20032;-74
2024/01/14 08:37:12;;;;;;;40.40;18.17;;;;;;;2.18;91.46;101188.75;5085540;28;20031;-74
2024/01/14 08:39:38;;;;;;;43.38;17.80;;;;;;;2.19;91.59;101174.84;5086498;28;20438;-74
2024/01/14 08:42:03;;;;;;;42.08;17.25;;;;;;;2.22;91.56;101181.78;5070632;28;20399;-75
2024/01/14 08:44:28;;;;;;;39.88;16.83;;;;;;;2.22;91.80;101174.84;5069533;28;20039;-74
2024/01/14 08:46:54;;;;;;;34.35;13.48;;;;;;;2.29;91.41;101175.72;5073730;28;20024;-75
2024/01/14 08:49:20;;;;;;;43.53;17.65;;;;;;;2.24;91.42;101170.50;5081407;28;20040;-74
2024/01/14 08:51:45;;;;;;;40.45;16.70;;;;;;;2.27;91.65;101167.00;5064659;28;20032;-74
2024/01/14 08:54:10;;;;;;;45.85;17.33;;;;;;;2.32;91.48;101159.19;5089530;28;20032;-74
2024/01/14 08:56:36;;;;;;;42.70;16.13;;;;;;;2.36;91.32;101155.69;5090100;28;20021;-74
2024/01/14 08:59:01;;;;;;;44.35;18.33;;;;;;;2.33;91.21;101160.91;5089210;28;20479;-74
2024/01/14 09:01:27;;;;;;;43.53;16.63;;;;;;;2.34;91.12;101166.13;5070332;28;20028;-74
2024/01/14 09:03:53;;;;;;;43.05;17.13;;;;;;;2.35;91.18;101162.66;5088940;28;20024;-74
2024/01/14 09:06:18;;;;;;;43.40;17.35;;;;;;;2.39;91.28;101161.78;5083521;28;20028;-74
2024/01/14 09:08:43;;;;;;;43.92;16.58;;;;;;;2.39;91.04;101164.38;5066828;28;20179;-74
2024/01/14 09:11:09;;;;;;;40.15;16.45;;;;;;;2.37;91.18;101168.72;5065180;28;20056;-78
2024/01/14 09:13:35;;;;;;;34.17;15.48;;;;;;;2.33;91.11;101159.16;5087357;28;20032;-78
2024/01/14 09:16:01;;;;;;;46.22;17.67;;;;;;;2.34;90.99;101173.09;5081510;28;20048;-79
2024/01/14 09:18:26;;;;;;;41.72;16.63;;;;;;;2.32;91.29;101160.03;5085263;28;20047;-77
2024/01/14 09:20:52;;;;;;;38.70;16.88;;;;;;;2.34;91.06;101160.06;5077833;28;20032;-78
2024/01/14 09:23:18;;;;;;;44.63;17.13;;;;;;;2.31;90.82;101158.31;5069621;28;20584;-79
2024/01/14 09:25:44;;;;;;;39.40;15.70;;;;;;;2.33;90.98;101155.69;5084655;28;20028;-77
2024/01/14 09:28:09;;;;;;;44.72;20.30;;;;;;;2.25;91.13;101148.75;5083414;28;20372;-78
2024/01/14 09:30:35;;;;;;;40.67;17.00;;;;;;;2.32;91.13;101149.59;5085761;28;20081;-78
2024/01/14 09:33:00;;;;;;;43.45;17.00;;;;;;;2.35;90.99;101152.22;5093263;28;20026;-78
2024/01/14 09:35:25;;;;;;;40.63;15.30;;;;;;;2.41;90.65;101146.97;5065957;28;20077;-78
2024/01/14 09:37:51;;;;;;;40.13;16.95;;;;;;;2.41;90.58;101143.50;5069521;28;20047;-78
2024/01/14 09:40:19;;;;;;;46.22;16.75;;;;;;;2.38;90.63;101138.28;5085412;28;20479;-77
2024/01/14 09:42:48;;;;;;;49.38;17.30;;;;;;;2.40;90.70;101140.03;5085167;28;20017;-75
2024/01/14 09:45:14;;;;;;;46.00;17.63;;;;;;;2.46;90.28;101132.19;5078111;28;20495;-74
2024/01/14 09:47:42;;;;;;;42.28;18.50;;;;;;;2.41;90.57;101138.28;5086713;28;20020;-73
2024/01/14 09:50:07;;;;;;;44.08;15.73;;;;;;;2.42;90.70;101127.84;5086435;28;20088;-74
2024/01/14 09:52:34;;;;;;;42.72;18.80;;;;;;;2.38;90.87;101127.84;5083136;28;20031;-74
2024/01/14 09:55:00;;;;;;;39.13;18.02;;;;;;;2.40;90.87;101133.94;5069233;28;20016;-74
2024/01/14 09:57:28;;;;;;;42.88;16.55;;;;;;;2.44;90.67;101125.25;5086057;28;20043;-74
2024/01/14 09:59:55;;;;;;;45.83;17.75;;;;;;;2.51;90.69;101132.16;5064639;28;20031;-75
2024/01/14 10:02:21;;;;;;;48.53;19.02;;;;;;;2.51;90.36;101129.56;5068116;28;20092;-75
2024/01/14 10:04:48;;;;;;;41.92;16.70;;;;;;;2.53;90.51;101133.06;5085108;28;20472;-74
2024/01/14 10:07:14;;;;;;;51.47;20.02;;;;;;;2.50;90.37;101128.69;5084012;28;20142;-74
2024/01/14 10:09:41;;;;;;;42.90;16.38;;;;;;;2.58;90.35;101126.06;5085718;28;20040;-72
2024/01/14 10:12:10;;;;;;;45.05;18.05;;;;;;;2.60;90.38;101126.94;5091759;28;20123;-74
2024/01/14 10:14:36;;;;;;;52.03;18.40;;;;;;;2.67;90.11;101120.84;5066182;28;20021;-75
2024/01/14 10:17:02;;;;;;;47.35;17.73;;;;;;;2.66;90.03;101113.88;5082909;28;20035;-73
2024/01/14 10:19:29;;;;;;;46.28;17.98;;;;;;;2.66;90.25;101113.88;5080852;28;20040;-74
2024/01/14 10:21:55;;;;;;;45.08;19.20;;;;;;;2.59;90.04;101099.09;5073678;28;20813;-78
2024/01/14 10:24:24;;;;;;;45.60;17.77;;;;;;;2.63;90.31;101103.44;5085462;28;20063;-79
2024/01/14 10:26:53;;;;;;;44.33;19.13;;;;;;;2.64;90.23;101096.47;5068863;28;20016;-80
2024/01/14 10:29:19;;;;;;;39.72;16.25;;;;;;;2.70;89.80;101094.69;5085267;28;20134;-79
2024/01/14 10:31:44;;;;;;;43.97;18.00;;;;;;;2.62;89.95;101090.41;5087361;28;20473;-78
2024/01/14 10:34:10;;;;;;;32.92;15.07;;;;;;;2.67;89.71;101088.63;5086697;28;20508;-79
2024/01/14 10:36:37;;;;;;;40.03;17.13;;;;;;;2.66;89.62;101084.28;5063469;28;20542;-78
2024/01/14 10:39:05;;;;;;;44.22;17.27;;;;;;;2.68;89.59;101093.84;5073184;28;20024;-78
2024/01/14 10:41:32;;;;;;;39.90;15.85;;;;;;;2.65;89.44;101083.41;5087012;28;20068;-79
2024/01/14 10:43:58;;;;;;;37.70;16.95;;;;;;;2.59;89.64;101079.97;5081333;28;20100;-79
2024/01/14 10:46:24;;;;;;;44.35;18.65;;;;;;;2.54;89.73;101073.00;5055274;28;20115;-79
2024/01/14 10:48:57;;;;;;;39.35;16.25;;;;;;;2.60;89.89;101063.41;5061763;28;20181;-79
2024/01/14 10:51:26;;;;;;;40.17;16.27;;;;;;;2.57;89.37;101063.47;5081996;28;20052;-75
2024/01/14 10:54:04;;;;;;;42.38;18.90;;;;;;;2.49;89.83;101064.34;5085735;28;20039;-74
2024/01/14 10:56:39;;;;;;;35.85;15.32;;;;;;;2.55;89.53;101051.25;5079976;28;20020;-75
2024/01/14 10:59:07;;;;;;;42.30;18.65;;;;;;;2.50;89.37;101049.53;5092436;28;20024;-75
2024/01/14 11:01:36;;;;;;;34.95;15.57;;;;;;;2.34;90.47;101033.09;5064226;28;20134;-76
2024/01/14 11:04:03;;;;;;;32.72;14.10;;;;;;;2.47;90.18;101040.00;5081077;28;20035;-75
2024/01/14 11:06:30;;;;;;;33.03;13.90;;;;;;;2.51;90.16;101035.63;5044980;28;20392;-76
2024/01/14 11:08:55;;;;;;;34.83;16.63;;;;;;;2.51;90.45;101030.41;5085966;28;20035;-75
2024/01/14 11:11:28;;;;;;;33.90;14.75;;;;;;;2.47;90.53;101020.84;5064839;28;20067;-74